createdAt,value
2022-09-28T00:00:10.697Z,97221.66
2022-09-28T00:03:28.169Z,97240.44
2022-09-28T00:06:39.752Z,97238.16
2022-09-28T00:09:51.245Z,97237.52
2022-09-28T00:13:06.239Z,97232.20
2022-09-28T00:16:20.792Z,97235.40
2022-09-28T00:19:32.403Z,97231.30
2022-09-28T00:22:44.104Z,97231.30
2022-09-28T00:25:55.938Z,97235.67
2022-09-28T00:29:08.718Z,97230.26
2022-09-28T00:32:29.989Z,97230.18
2022-09-28T00:35:47.947Z,97235.83
2022-09-28T00:42:18.469Z,97235.27
2022-09-28T00:45:34.951Z,97235.64
2022-09-28T00:48:55.177Z,97239.28
2022-09-28T00:52:14.894Z,97234.35
2022-09-28T00:55:39.096Z,97235.98
2022-09-28T00:58:59.693Z,97227.38
2022-09-28T01:02:17.742Z,97228.58
2022-09-28T01:05:33.427Z,97224.45
2022-09-28T01:08:50.660Z,97220.13
2022-09-28T01:12:02.697Z,97219.48
2022-09-28T01:15:15.668Z,97222.70
2022-09-28T01:18:33.752Z,97225.17
2022-09-28T01:21:53.047Z,97228.47
2022-09-28T01:25:14.251Z,97226.27
2022-09-28T01:28:29.783Z,97235.91
2022-09-28T01:31:46.089Z,97230.22
2022-09-28T01:35:04.837Z,97230.03
2022-09-28T01:38:21.416Z,97231.05
2022-09-28T01:41:36.543Z,97229.05
2022-09-28T01:44:53.334Z,97232.98
2022-09-28T01:48:09.210Z,97227.03
2022-09-28T01:51:26.163Z,97240.95
2022-09-28T01:54:42.478Z,97249.91
2022-09-28T01:57:59.515Z,97241.30
2022-09-28T02:01:17.347Z,97248.61
2022-09-28T02:04:35.139Z,97242.31
2022-09-28T02:07:51.661Z,97247.44
2022-09-28T02:11:08.146Z,97249.63
2022-09-28T02:14:23.754Z,97259.23
2022-09-28T02:17:35.652Z,97261.88
2022-09-28T02:20:52.901Z,97258.88
2022-09-28T02:24:10.554Z,97256.30
2022-09-28T02:27:29.067Z,97258.23
2022-09-28T02:30:42.694Z,97258.42
2022-09-28T02:33:55.651Z,97261.23
2022-09-28T02:37:08.394Z,97262.25
2022-09-28T02:40:26.546Z,97265.44
2022-09-28T02:43:45.838Z,97264.20
2022-09-28T02:47:03.386Z,97269.75
2022-09-28T02:50:24.392Z,97268.45
2022-09-28T02:54:09.646Z,97272.16
2022-09-28T02:57:31.654Z,97278.95
2022-09-28T03:00:48.902Z,97277.04
2022-09-28T03:04:08.149Z,97273.23
2022-09-28T03:07:26.366Z,97273.14
2022-09-28T03:10:44.648Z,97266.03
2022-09-28T03:13:57.572Z,97271.88
2022-09-28T03:17:11.038Z,97275.69
2022-09-28T03:20:23.541Z,97260.15
2022-09-28T03:23:35.264Z,97268.80
2022-09-28T03:26:47.792Z,97269.48
2022-09-28T03:29:59.562Z,97272.17
2022-09-28T03:33:11.224Z,97274.67
2022-09-28T03:36:23.669Z,97270.90
2022-09-28T03:39:35.639Z,97267.92
2022-09-28T03:42:47.786Z,97271.11
2022-09-28T03:46:04.321Z,97274.58
2022-09-28T03:49:18.208Z,97281.07
2022-09-28T03:52:29.817Z,97290.35
2022-09-28T03:55:41.399Z,97284.89
2022-09-28T03:58:52.926Z,97292.18
2022-09-28T04:02:04.539Z,97297.83
2022-09-28T04:05:17.710Z,97289.23
2022-09-28T04:08:29.723Z,97288.58
2022-09-28T04:11:59.694Z,97286.25
2022-09-28T04:14:55.620Z,97293.53
2022-09-28T04:18:07.237Z,97287.75
2022-09-28T04:21:25.677Z,97291.55
2022-09-28T04:24:43.585Z,97291.91
2022-09-28T04:28:11.257Z,97294.03
2022-09-28T04:31:25.880Z,97305.81
2022-09-28T04:34:41.879Z,97299.20
2022-09-28T04:37:51.128Z,97297.53
2022-09-28T04:41:02.955Z,97295.89
2022-09-28T04:44:15.400Z,97295.41
2022-09-28T04:47:27.192Z,97297.53
2022-09-28T04:50:41.204Z,97308.64
2022-09-28T04:54:04.362Z,97300.84
2022-09-28T04:57:15.954Z,97296.73
2022-09-28T05:00:27.408Z,97303.17
2022-09-28T05:03:40.890Z,97308.12
2022-09-28T05:07:11.304Z,97321.20
2022-09-28T05:10:23.443Z,97324.52
2022-09-28T05:13:38.242Z,97316.58
2022-09-28T05:16:52.073Z,97322.67
2022-09-28T05:20:07.098Z,97327.64
2022-09-28T05:23:20.253Z,97326.31
2022-09-28T05:26:32.151Z,97323.14
2022-09-28T05:29:43.893Z,97313.07
2022-09-28T05:33:05.806Z,97313.39
2022-09-28T05:36:30.088Z,97318.02
2022-09-28T05:39:41.576Z,97301.45
2022-09-28T05:42:53.130Z,97307.33
2022-09-28T05:46:06.162Z,97308.03
2022-09-28T05:49:19.725Z,97300.50
2022-09-28T05:52:31.726Z,97306.22
2022-09-28T05:55:44.021Z,97303.80
2022-09-28T05:58:56.699Z,97301.00
2022-09-28T06:02:10.054Z,97308.86
2022-09-28T06:05:21.877Z,97311.73
2022-09-28T06:08:34.819Z,97310.36
2022-09-28T06:11:48.430Z,97311.09
2022-09-28T06:15:13.473Z,97312.34
2022-09-28T06:18:25.501Z,97303.20
2022-09-28T06:21:58.410Z,97305.13
2022-09-28T06:25:11.393Z,97307.69
2022-09-28T06:28:24.929Z,97301.29
2022-09-28T06:31:36.984Z,97304.59
2022-09-28T06:34:51.710Z,97292.83
2022-09-28T06:38:16.263Z,97292.89
2022-09-28T06:41:40.201Z,97302.23
2022-09-28T06:44:53.982Z,97291.70
2022-09-28T06:48:36.164Z,97276.25
2022-09-28T06:51:48.962Z,97266.11
2022-09-28T06:55:06.462Z,97256.99
2022-09-28T06:58:28.263Z,97260.02
2022-09-28T07:01:41.955Z,97256.83
2022-09-28T07:04:55.681Z,97266.30
2022-09-28T07:08:10.132Z,97275.81
2022-09-28T07:11:32.572Z,97278.80
2022-09-28T07:14:50.311Z,97276.78
2022-09-28T07:18:07.447Z,97289.92
2022-09-28T07:21:27.809Z,97290.89
2022-09-28T07:24:34.179Z,97298.34
2022-09-28T07:28:04.311Z,97290.36
2022-09-28T07:31:18.128Z,97282.91
2022-09-28T07:34:48.703Z,97292.13
2022-09-28T07:38:09.996Z,97284.08
2022-09-28T07:41:24.087Z,97285.97
2022-09-28T07:44:36.600Z,97283.27
2022-09-28T07:47:49.682Z,97283.80
2022-09-28T07:51:06.523Z,97289.45
2022-09-28T07:54:20.094Z,97299.94
2022-09-28T07:57:37.721Z,97300.80
2022-09-28T08:01:14.946Z,97310.80
2022-09-28T08:04:28.336Z,97294.02
2022-09-28T08:07:41.059Z,97288.46
2022-09-28T08:14:11.032Z,97286.17
2022-09-28T08:17:33.907Z,97275.40
2022-09-28T08:21:04.848Z,97294.66
2022-09-28T08:24:17.545Z,97282.92
2022-09-28T08:27:32.339Z,97281.30
2022-09-28T08:30:44.256Z,97270.59
2022-09-28T08:34:13.642Z,97267.48
2022-09-28T08:37:39.759Z,97264.22
2022-09-28T08:41:26.460Z,97272.61
2022-09-28T08:44:49.200Z,97267.48
2022-09-28T08:48:25.061Z,97265.73
2022-09-28T08:52:04.354Z,97264.03
2022-09-28T08:55:23.253Z,97268.17
2022-09-28T08:58:36.028Z,97267.90
2022-09-28T09:01:56.382Z,97264.63
2022-09-28T09:05:11.110Z,97264.13
2022-09-28T09:08:47.213Z,97279.59
2022-09-28T09:12:08.336Z,97276.55
2022-09-28T09:15:39.486Z,97278.78
2022-09-28T09:18:58.984Z,97272.81
2022-09-28T09:22:21.610Z,97281.75
2022-09-28T09:25:39.279Z,97276.03
2022-09-28T09:29:15.621Z,97274.06
2022-09-28T09:32:46.693Z,97261.11
2022-09-28T09:36:14.462Z,97277.23
2022-09-28T09:42:42.067Z,97253.89
2022-09-28T09:46:20.927Z,97279.25
2022-09-28T09:49:40.918Z,97279.59
2022-09-28T09:52:58.986Z,97268.31
2022-09-28T09:56:18.706Z,97268.95
2022-09-28T09:59:51.413Z,97289.95
2022-09-28T10:03:08.076Z,97272.18
2022-09-28T10:06:25.083Z,97263.11
2022-09-28T10:09:41.170Z,97251.34
2022-09-28T10:13:10.149Z,97247.23
2022-09-28T10:16:24.362Z,97245.13
2022-09-28T10:19:39.470Z,97243.68
2022-09-28T10:23:14.432Z,97235.06
2022-09-28T10:26:31.681Z,97229.87
2022-09-28T10:29:53.808Z,97234.10
2022-09-28T10:33:05.299Z,97224.58
2022-09-28T10:36:18.368Z,97229.52
2022-09-28T10:39:38.591Z,97229.68
2022-09-28T10:42:50.752Z,97230.09
2022-09-28T10:46:12.477Z,97234.12
2022-09-28T10:49:28.602Z,97218.89
2022-09-28T10:52:46.655Z,97218.02
2022-09-28T10:56:10.616Z,97215.17
2022-09-28T10:59:46.825Z,97209.33
2022-09-28T11:03:04.973Z,97209.80
2022-09-28T11:06:18.044Z,97214.57
2022-09-28T11:09:35.649Z,97225.64
2022-09-28T11:12:51.550Z,97204.27
2022-09-28T11:16:03.694Z,97202.62
2022-09-28T11:19:33.617Z,97187.78
2022-09-28T11:22:51.471Z,97188.25
2022-09-28T11:26:09.058Z,97190.08
2022-09-28T11:29:38.163Z,97181.11
2022-09-28T11:33:06.848Z,97177.71
2022-09-28T11:36:34.899Z,97182.41
2022-09-28T11:39:55.826Z,97180.45
2022-09-28T11:43:19.798Z,97179.59
2022-09-28T11:52:39.003Z,97126.48
2022-09-28T11:55:59.918Z,97153.53
2022-09-28T11:59:16.865Z,97132.67
2022-09-28T12:02:35.880Z,97132.64
2022-09-28T12:05:54.783Z,97137.20
2022-09-28T12:09:15.316Z,97131.35
2022-09-28T12:12:53.826Z,97129.14
2022-09-28T12:16:37.535Z,97119.31
2022-09-28T12:19:29.412Z,97117.64
2022-09-28T12:22:46.831Z,97104.23
2022-09-28T12:26:03.400Z,97108.33
2022-09-28T12:29:20.105Z,97107.57
2022-09-28T12:32:39.710Z,97107.57
2022-09-28T12:36:11.958Z,97108.94
2022-09-28T12:39:57.997Z,97107.75
2022-09-28T12:43:44.874Z,97111.80
2022-09-28T12:47:10.363Z,97104.19
2022-09-28T12:50:39.388Z,97097.70
2022-09-28T12:54:15.324Z,97092.73
2022-09-28T12:57:52.415Z,97085.30
2022-09-28T13:01:10.519Z,97083.65
2022-09-28T13:04:46.392Z,97083.83
2022-09-28T13:08:03.686Z,97081.28
2022-09-28T13:11:22.121Z,97079.48
2022-09-28T13:15:03.768Z,97088.29
2022-09-28T13:18:29.837Z,97097.59
2022-09-28T13:21:47.946Z,97101.84
2022-09-28T13:25:03.905Z,97086.41
2022-09-28T13:28:21.298Z,97097.31
2022-09-28T13:31:38.407Z,97085.05
2022-09-28T13:34:55.380Z,97080.23
2022-09-28T13:38:55.189Z,97081.27
2022-09-28T13:42:07.423Z,97077.99
2022-09-28T13:45:58.916Z,97078.09
2022-09-28T13:49:16.040Z,97070.48
2022-09-28T13:52:41.107Z,97055.42
2022-09-28T13:56:06.207Z,97061.13
2022-09-28T13:59:27.027Z,97074.80
2022-09-28T14:02:46.659Z,97087.30
2022-09-28T14:06:28.298Z,97091.67
2022-09-28T14:09:52.993Z,97089.42
2022-09-28T14:13:06.657Z,97106.13
2022-09-28T14:16:33.416Z,97101.63
2022-09-28T14:19:46.441Z,97090.67
2022-09-28T14:23:46.796Z,97091.88
2022-09-28T14:27:56.572Z,97099.85
2022-09-28T14:31:18.609Z,97096.88
2022-09-28T14:34:37.205Z,97057.13
2022-09-28T14:38:07.478Z,97083.09
2022-09-28T14:41:35.300Z,97087.54
2022-09-28T15:47:57.831Z,97076.75
2022-09-28T15:51:14.425Z,97082.11
2022-09-28T15:54:32.755Z,97081.66
2022-09-28T15:57:46.052Z,97073.02
2022-09-28T16:01:13.905Z,97080.03
2022-09-28T16:04:54.602Z,97076.30
2022-09-28T16:08:17.399Z,97077.36
2022-09-28T16:11:31.892Z,97071.40
2022-09-28T16:14:44.045Z,97077.17
2022-09-28T16:18:02.616Z,97066.91
2022-09-28T16:30:28.976Z,97073.14
2022-09-28T16:33:48.085Z,97071.11
2022-09-28T16:36:59.999Z,97073.56
2022-09-28T16:40:14.117Z,97084.27
2022-09-28T16:43:31.049Z,97072.95
2022-09-28T16:46:44.423Z,97074.00
2022-09-28T16:49:57.120Z,97068.43
2022-09-28T16:53:31.808Z,97076.45
2022-09-28T16:56:44.008Z,97078.16
2022-09-28T16:59:55.743Z,97074.88
2022-09-28T17:03:10.491Z,97082.30
2022-09-28T17:06:25.463Z,97077.97
2022-09-28T17:09:37.261Z,97080.64
2022-09-28T17:12:48.922Z,97082.72
2022-09-28T17:16:01.663Z,97089.76
2022-09-28T17:19:23.292Z,97078.23
2022-09-28T17:22:35.016Z,97080.74
2022-09-28T17:25:47.332Z,97081.16
2022-09-28T17:28:59.461Z,97086.35
2022-09-28T17:32:16.949Z,97091.92
2022-09-28T17:35:28.684Z,97089.25
2022-09-28T17:38:42.196Z,97088.26
2022-09-28T17:41:53.850Z,97085.96
2022-09-28T17:45:05.433Z,97092.36
2022-09-28T17:48:23.070Z,97088.66
2022-09-28T17:51:37.617Z,97094.23
2022-09-28T17:54:49.445Z,97100.82
2022-09-28T17:58:01.367Z,97100.02
2022-09-28T18:01:13.137Z,97101.05
2022-09-28T18:04:50.250Z,97102.50
2022-09-28T18:07:39.196Z,97104.78
2022-09-28T18:10:51.468Z,97111.77
2022-09-28T18:14:04.970Z,97111.16
2022-09-28T18:17:17.383Z,97105.64
2022-09-28T18:20:29.744Z,97118.61
2022-09-28T18:23:45.062Z,97119.02
2022-09-28T18:26:57.170Z,97124.37
2022-09-28T18:30:11.501Z,97123.76
2022-09-28T18:33:23.483Z,97129.95
2022-09-28T18:36:39.021Z,97134.91
2022-09-28T18:39:51.083Z,97137.40
2022-09-28T18:43:03.379Z,97133.06
2022-09-28T18:46:18.236Z,97132.23
2022-09-28T18:49:33.684Z,97137.19
2022-09-28T18:52:47.341Z,97148.09
2022-09-28T18:55:59.373Z,97153.45
2022-09-28T18:59:12.685Z,97155.50
2022-09-28T19:02:24.732Z,97162.08
2022-09-28T19:05:36.806Z,97131.93
2022-09-28T19:08:49.384Z,97173.82
2022-09-28T19:12:03.995Z,97169.92
2022-09-28T19:15:16.959Z,97167.06
2022-09-28T19:18:28.635Z,97174.25
2022-09-28T19:21:40.379Z,97171.17
2022-09-28T19:24:52.198Z,97178.76
2022-09-28T19:28:03.858Z,97176.52
2022-09-28T19:31:19.124Z,97171.57
2022-09-28T19:34:42.799Z,97185.76
2022-09-28T19:37:54.607Z,97178.78
2022-09-28T19:41:07.399Z,97188.42
2022-09-28T19:44:24.870Z,97193.77
2022-09-28T19:47:40.044Z,97196.64
2022-09-28T19:51:00.656Z,97191.73
2022-09-28T19:54:15.032Z,97190.09
2022-09-28T19:57:28.382Z,97190.88
2022-09-28T20:00:40.266Z,97194.15
2022-09-28T20:03:54.176Z,97197.83
2022-09-28T20:16:45.405Z,97204.15
2022-09-28T20:19:58.835Z,97207.64
2022-09-28T20:33:28.975Z,97221.13
2022-09-28T20:36:42.156Z,97231.80
2022-09-28T20:39:53.922Z,97248.19
2022-09-28T20:43:06.008Z,97261.32
2022-09-28T20:46:21.380Z,97264.78
2022-09-28T20:49:33.084Z,97280.56
2022-09-28T20:52:44.778Z,97293.81
2022-09-28T20:56:08.402Z,97293.59
2022-09-28T20:59:20.362Z,97282.45
2022-09-28T21:02:32.093Z,97271.31
2022-09-28T21:05:44.560Z,97263.52
2022-09-28T21:08:56.865Z,97281.25
2022-09-28T21:12:09.232Z,97282.60
2022-09-28T21:15:20.937Z,97286.50
2022-09-28T21:18:32.760Z,97281.31
2022-09-28T21:21:44.280Z,97269.83
2022-09-28T21:24:55.929Z,97261.61
2022-09-28T21:28:07.808Z,97276.56
2022-09-28T21:31:22.625Z,97270.60
2022-09-28T21:34:35.896Z,97277.59
2022-09-28T21:37:47.544Z,97277.39
2022-09-28T21:41:04.326Z,97287.41
2022-09-28T21:44:16.630Z,97282.45
2022-09-28T21:47:29.850Z,97284.55
2022-09-28T21:50:41.450Z,97278.85
2022-09-28T21:53:54.106Z,97274.52
2022-09-28T21:57:05.693Z,97275.16
2022-09-28T22:00:20.375Z,97293.61
2022-09-28T22:03:32.317Z,97292.97
2022-09-28T22:06:43.962Z,97291.14
2022-09-28T22:09:55.542Z,97300.16
2022-09-28T22:13:07.359Z,97298.30
2022-09-28T22:16:21.521Z,97305.92
2022-09-28T22:19:36.286Z,97314.75
2022-09-28T22:22:48.056Z,97317.64
2022-09-28T22:26:06.367Z,97324.63
2022-09-28T22:29:18.151Z,97324.17
2022-09-28T22:32:30.165Z,97321.91
2022-09-28T22:35:41.712Z,97329.83
2022-09-28T22:38:54.414Z,97337.76
2022-09-28T22:42:06.092Z,97340.75
2022-09-28T22:45:17.882Z,97346.27
2022-09-28T22:48:29.472Z,97346.27
2022-09-28T22:51:41.045Z,97347.86
2022-09-28T22:54:53.920Z,97346.95
2022-09-28T22:58:06.037Z,97354.06
2022-09-28T23:01:21.098Z,97339.08
2022-09-28T23:04:33.620Z,97343.61
2022-09-28T23:07:45.368Z,97344.41
2022-09-28T23:11:00.125Z,97343.97
2022-09-28T23:14:13.604Z,97343.97
2022-09-28T23:17:25.130Z,97343.53
2022-09-28T23:20:39.975Z,97352.70
2022-09-28T23:23:54.623Z,97353.73
2022-09-28T23:27:07.307Z,97357.98
2022-09-28T23:30:19.754Z,97353.66
2022-09-28T23:33:31.451Z,97367.20
2022-09-28T23:36:43.377Z,97364.94
2022-09-28T23:39:54.984Z,97363.94
2022-09-28T23:43:06.630Z,97358.78
2022-09-28T23:46:20.875Z,97369.27
2022-09-28T23:49:32.347Z,97365.96
2022-09-28T23:52:44.089Z,97360.00
2022-09-28T23:55:55.636Z,97370.90
2022-09-28T23:59:07.518Z,97362.83
